createdAt,value
2023-04-18T00:02:04.622Z,100920.77
2023-04-18T00:07:13.601Z,100925.50
2023-04-18T00:12:21.324Z,100926.92
2023-04-18T00:17:28.825Z,100928.09
2023-04-18T00:22:36.807Z,100924.21
2023-04-18T00:27:45.222Z,100929.36
2023-04-18T00:32:52.867Z,100928.35
2023-04-18T00:38:00.307Z,100925.23
2023-04-18T00:43:08.829Z,100927.33
2023-04-18T00:48:16.383Z,100928.90
2023-04-18T00:53:23.856Z,100927.84
2023-04-18T00:58:31.705Z,100933.45
2023-04-18T01:03:40.020Z,100937.65
2023-04-18T01:08:48.265Z,100940.23
2023-04-18T01:14:06.815Z,100937.77
2023-04-18T01:19:17.461Z,100939.86
2023-04-18T01:24:27.332Z,100945.79
2023-04-18T01:29:36.261Z,100941.74
2023-04-18T01:34:45.505Z,100942.80
2023-04-18T01:39:54.293Z,100941.02
2023-04-18T01:45:01.543Z,100942.42
2023-04-18T01:50:10.763Z,100937.55
2023-04-18T01:55:18.611Z,100941.59
2023-04-18T02:00:27.300Z,100940.72
2023-04-18T02:05:34.926Z,100941.27
2023-04-18T02:10:42.993Z,100944.63
2023-04-18T02:15:51.306Z,100937.42
2023-04-18T02:20:58.859Z,100939.71
2023-04-18T02:26:06.372Z,100939.21
2023-04-18T02:31:15.303Z,100936.79
2023-04-18T02:36:22.958Z,100935.06
2023-04-18T02:41:30.564Z,100930.73
2023-04-18T02:46:38.348Z,100927.77
2023-04-18T02:51:48.312Z,100929.55
2023-04-18T02:56:57.476Z,100934.82
2023-04-18T03:02:35.197Z,100929.05
2023-04-18T03:07:51.326Z,100931.69
2023-04-18T03:12:59.894Z,100929.44
2023-04-18T03:18:09.170Z,100924.08
2023-04-18T03:23:17.533Z,100930.75
2023-04-18T03:28:26.163Z,100932.15
2023-04-18T03:33:34.261Z,100934.99
2023-04-18T03:38:47.941Z,100935.73
2023-04-18T03:43:55.603Z,100938.04
2023-04-18T03:49:03.175Z,100940.37
2023-04-18T03:54:11.164Z,100945.66
2023-04-18T03:59:18.924Z,100947.30
2023-04-18T04:04:28.090Z,100948.91
2023-04-18T04:09:36.964Z,100954.73
2023-04-18T04:14:44.301Z,100949.20
2023-04-18T04:19:52.883Z,100953.23
2023-04-18T04:25:01.288Z,100953.78
2023-04-18T04:30:14.539Z,100955.83
2023-04-18T04:35:21.966Z,100957.19
2023-04-18T04:40:29.869Z,100960.55
2023-04-18T04:45:45.931Z,100962.64
2023-04-18T04:50:57.857Z,100965.23
2023-04-18T04:56:05.246Z,100969.59
2023-04-18T05:01:13.774Z,100967.55
2023-04-18T05:06:23.099Z,100969.58
2023-04-18T05:11:31.222Z,100973.48
2023-04-18T05:16:39.109Z,100975.36
2023-04-18T05:21:47.089Z,100979.43
2023-04-18T05:26:54.790Z,100984.48
2023-04-18T05:32:03.921Z,100978.25
2023-04-18T05:37:12.011Z,100976.25
2023-04-18T05:42:19.448Z,100980.52
2023-04-18T05:47:28.869Z,100980.38
2023-04-18T05:52:36.410Z,100981.23
2023-04-18T05:57:43.821Z,100979.44
2023-04-18T06:02:51.543Z,100968.91
2023-04-18T06:07:59.548Z,100970.13
2023-04-18T06:13:07.607Z,100964.58
2023-04-18T06:18:15.688Z,100963.73
2023-04-18T06:23:24.081Z,100963.18
2023-04-18T06:28:31.648Z,100962.56
2023-04-18T06:33:40.201Z,100963.79
2023-04-18T06:38:47.705Z,100966.45
2023-04-18T06:44:03.421Z,100965.58
2023-04-18T06:49:11.656Z,100967.94
2023-04-18T06:54:20.160Z,100965.45
2023-04-18T06:59:27.571Z,100967.42
2023-04-18T07:04:35.566Z,100968.66
2023-04-18T07:09:43.939Z,100969.23
2023-04-18T07:14:51.938Z,100966.96
2023-04-18T07:19:59.879Z,100971.65
2023-04-18T07:25:08.683Z,100965.67
2023-04-18T07:30:18.245Z,100966.86
2023-04-18T07:35:25.969Z,100966.66
2023-04-18T07:40:33.554Z,100967.13
2023-04-18T07:45:43.856Z,100961.22
2023-04-18T07:50:52.456Z,100965.52
2023-04-18T07:55:59.835Z,100969.30
2023-04-18T08:01:08.156Z,100968.55
2023-04-18T08:06:15.830Z,100972.51
2023-04-18T08:11:23.719Z,100970.23
2023-04-18T08:16:31.215Z,100976.89
2023-04-18T08:21:39.952Z,100973.26
2023-04-18T08:26:47.948Z,100967.20
2023-04-18T08:31:55.320Z,100968.14
2023-04-18T08:37:02.746Z,100964.87
2023-04-18T08:42:12.277Z,100962.63
2023-04-18T08:47:19.855Z,100966.67
2023-04-18T08:52:28.754Z,100963.34
2023-04-18T08:57:37.372Z,100962.92
2023-04-18T09:02:47.450Z,100953.66
2023-04-18T09:07:56.543Z,100956.54
2023-04-18T09:13:05.585Z,100951.89
2023-04-18T09:18:13.671Z,100940.73
2023-04-18T09:23:27.277Z,100941.89
2023-04-18T09:28:37.889Z,100938.96
2023-04-18T09:33:57.173Z,100935.31
2023-04-18T09:39:05.727Z,100936.95
2023-04-18T09:44:15.896Z,100933.20
2023-04-18T09:49:24.147Z,100930.89
2023-04-18T09:54:35.408Z,100931.46
2023-04-18T09:59:48.495Z,100937.23
2023-04-18T10:04:57.767Z,100928.20
2023-04-18T10:10:05.418Z,100925.11
2023-04-18T10:15:16.182Z,100923.14
2023-04-18T10:20:25.546Z,100916.36
2023-04-18T10:25:55.425Z,100914.73
2023-04-18T10:31:08.310Z,100910.20
2023-04-18T10:36:20.935Z,100908.69
2023-04-18T10:41:30.885Z,100901.70
2023-04-18T10:46:38.503Z,100898.50
2023-04-18T10:51:46.732Z,100893.13
2023-04-18T10:56:58.321Z,100887.69
2023-04-18T11:02:25.330Z,100888.23
2023-04-18T11:07:40.541Z,100876.66
2023-04-18T11:12:48.524Z,100879.19
2023-04-18T11:18:04.274Z,100875.56
2023-04-18T11:23:21.426Z,100863.18
2023-04-18T11:28:31.422Z,100858.63
2023-04-18T11:33:39.860Z,100854.60
2023-04-18T11:38:47.385Z,100854.34
2023-04-18T11:43:54.700Z,100852.52
2023-04-18T11:49:02.259Z,100851.48
2023-04-18T11:54:30.168Z,100839.87
2023-04-18T11:59:37.747Z,100835.30
2023-04-18T12:04:59.731Z,100838.27
2023-04-18T12:10:09.568Z,100837.74
2023-04-18T12:15:20.043Z,100828.14
2023-04-18T12:20:35.302Z,100825.71
2023-04-18T12:25:43.125Z,100816.27
2023-04-18T12:30:50.799Z,100811.23
2023-04-18T12:35:58.650Z,100811.75
2023-04-18T12:41:06.346Z,100807.14
2023-04-18T12:46:14.982Z,100803.09
2023-04-18T12:51:23.265Z,100790.66
2023-04-18T12:56:30.930Z,100784.73
2023-04-18T13:01:38.396Z,100780.98
2023-04-18T13:06:46.139Z,100779.33
2023-04-18T13:11:54.135Z,100776.16
2023-04-18T13:17:01.676Z,100774.73
2023-04-18T13:22:09.615Z,100769.84
2023-04-18T13:27:51.356Z,100770.08
2023-04-18T13:33:24.050Z,100762.77
2023-04-18T13:38:32.038Z,100760.58
2023-04-18T13:43:39.473Z,100755.47
2023-04-18T13:48:47.312Z,100750.90
2023-04-18T13:53:54.847Z,100751.00
2023-04-18T13:59:02.432Z,100747.22
2023-04-18T14:04:10.051Z,100749.98
2023-04-18T14:09:18.607Z,100748.83
2023-04-18T14:14:26.246Z,100744.73
2023-04-18T14:19:35.219Z,100744.61
2023-04-18T14:24:42.754Z,100753.23
2023-04-18T14:29:50.111Z,100752.73
2023-04-18T14:34:59.223Z,100747.88
2023-04-18T14:40:08.715Z,100747.45
2023-04-18T14:45:17.341Z,100742.04
2023-04-18T14:50:25.078Z,100735.93
2023-04-18T14:55:32.771Z,100733.58
2023-04-18T15:00:40.331Z,100731.77
2023-04-18T15:05:49.369Z,100731.85
2023-04-18T15:10:56.936Z,100729.98
2023-04-18T15:16:04.462Z,100733.30
2023-04-18T15:21:11.951Z,100733.70
2023-04-18T15:26:19.352Z,100732.42
2023-04-18T15:31:27.997Z,100733.77
2023-04-18T15:36:36.369Z,100707.22
2023-04-18T15:41:43.891Z,100730.52
2023-04-18T15:46:51.675Z,100731.52
2023-04-18T15:51:59.425Z,100725.95
2023-04-18T15:57:06.829Z,100728.65
2023-04-18T16:02:14.726Z,100727.79
2023-04-18T16:07:22.196Z,100732.41
2023-04-18T16:12:29.397Z,100731.03
2023-04-18T16:17:37.255Z,100732.16
2023-04-18T16:22:44.647Z,100734.01
2023-04-18T16:27:52.113Z,100731.41
2023-04-18T16:32:59.543Z,100735.84
2023-04-18T16:38:07.459Z,100733.01
2023-04-18T16:43:15.070Z,100731.40
2023-04-18T16:48:22.792Z,100734.03
2023-04-18T16:53:30.368Z,100731.88
2023-04-18T16:58:37.866Z,100727.85
2023-04-18T17:03:45.348Z,100733.80
2023-04-18T17:08:54.009Z,100731.16
2023-04-18T17:14:02.016Z,100730.81
2023-04-18T17:19:09.791Z,100720.93
2023-04-18T17:24:19.289Z,100734.65
2023-04-18T17:29:26.693Z,100738.86
2023-04-18T17:34:34.383Z,100739.70
2023-04-18T17:39:41.801Z,100745.64
2023-04-18T17:44:49.511Z,100749.20
2023-04-18T17:49:56.993Z,100754.77
2023-04-18T17:55:04.488Z,100752.15
2023-04-18T18:00:15.042Z,100759.34
2023-04-18T18:05:23.742Z,100758.31
2023-04-18T18:10:31.566Z,100760.55
2023-04-18T18:15:38.920Z,100756.30
2023-04-18T18:20:47.087Z,100749.56
2023-04-18T18:25:54.706Z,100744.45
2023-04-18T18:31:02.273Z,100740.73
2023-04-18T18:36:10.070Z,100735.88
2023-04-18T18:41:17.606Z,100726.59
2023-04-18T18:46:25.469Z,100717.27
2023-04-18T18:51:33.115Z,100706.51
2023-04-18T18:56:42.637Z,100703.44
2023-04-18T19:01:50.018Z,100706.33
2023-04-18T19:06:57.791Z,100710.98
2023-04-18T19:12:05.406Z,100706.97
2023-04-18T19:17:12.821Z,100700.66
2023-04-18T19:22:20.261Z,100696.46
2023-04-18T19:27:27.629Z,100689.11
2023-04-18T19:32:35.298Z,100686.14
2023-04-18T19:37:43.574Z,100686.66
2023-04-18T19:42:50.977Z,100687.61
2023-04-18T19:47:58.775Z,100681.45
2023-04-18T19:53:06.310Z,100676.38
2023-04-18T19:58:13.627Z,100671.66
2023-04-18T20:03:21.342Z,100674.29
2023-04-18T20:08:29.951Z,100669.17
2023-04-18T20:13:37.892Z,100667.02
2023-04-18T20:18:47.690Z,100659.73
2023-04-18T20:23:56.963Z,100657.88
2023-04-18T20:29:04.437Z,100659.69
2023-04-18T20:34:11.910Z,100658.36
2023-04-18T20:39:19.362Z,100654.19
2023-04-18T20:44:26.776Z,100649.31
2023-04-18T20:49:34.543Z,100646.41
2023-04-18T20:54:42.424Z,100651.18
2023-04-18T20:59:49.848Z,100649.67
2023-04-18T21:04:57.256Z,100647.33
2023-04-18T21:10:04.962Z,100642.36
2023-04-18T21:15:14.040Z,100640.79
2023-04-18T21:20:21.950Z,100634.83
2023-04-18T21:25:29.458Z,100630.93
2023-04-18T21:30:37.082Z,100624.16
2023-04-18T21:35:44.462Z,100624.80
2023-04-18T21:40:51.929Z,100626.17
2023-04-18T21:45:59.582Z,100623.36
2023-04-18T21:51:07.713Z,100623.52
2023-04-18T21:56:15.624Z,100614.38
2023-04-18T22:01:23.081Z,100612.93
2023-04-18T22:06:31.247Z,100605.73
2023-04-18T22:11:38.720Z,100597.13
2023-04-18T22:16:46.334Z,100592.21
2023-04-18T22:21:53.724Z,100586.79
2023-04-18T22:27:01.334Z,100582.05
2023-04-18T22:32:09.199Z,100577.08
2023-04-18T22:37:16.619Z,100567.73
2023-04-18T22:42:24.085Z,100561.52
2023-04-18T22:47:31.572Z,100555.48
2023-04-18T22:52:39.772Z,100545.40
2023-04-18T22:57:47.701Z,100542.11
2023-04-18T23:02:55.533Z,100532.18
2023-04-18T23:08:03.064Z,100524.19
2023-04-18T23:13:10.607Z,100512.66
2023-04-18T23:18:18.655Z,100511.11
2023-04-18T23:23:26.263Z,100497.66
2023-04-18T23:28:34.643Z,100497.16
2023-04-18T23:33:42.209Z,100491.77
2023-04-18T23:38:49.644Z,100487.11
2023-04-18T23:43:57.165Z,100484.59
2023-04-18T23:49:04.543Z,100481.33
2023-04-18T23:54:12.370Z,100476.84
2023-04-18T23:59:20.020Z,100469.17
